METAR Data
IDs: Format: Raw Decoded Include TAF

Data at: 1811 UTC 07 Dec 2021

K4S2 071755Z AUTO 00000KT 10SM SCT020 OVC040 03/03 A3011 RMK AO2
K4S2 071735Z AUTO 00000KT 5SM BR SCT005 BKN033 OVC040 03/03 A3011 RMK AO2
K4S2 071715Z AUTO 00000KT 10SM SCT005 BKN017 OVC029 03/02 A3011 RMK AO2
K4S2 071655Z AUTO 00000KT 7SM SCT005 BKN017 OVC026 03/02 A3010 RMK AO2 P0001
K4S2 071635Z AUTO 00000KT 7SM BKN005 BKN009 OVC026 03/02 A3010 RMK AO2 P0001
K4S2 071615Z AUTO 00000KT 3SM BR SCT005 BKN009 OVC040 03/02 A3010 RMK AO2 P0001
K4S2 071555Z AUTO 00000KT 4SM BR SCT007 SCT018 OVC040 02/02 A3009 RMK AO2
K4S2 071535Z AUTO 00000KT 4SM BR BKN018 OVC027 02/02 A3010 RMK AO2
K4S2 071515Z AUTO 00000KT 5SM BR OVC018 02/02 A3010 RMK AO2
K4S2 071455Z AUTO 00000KT 7SM BKN018 OVC029 02/02 A3009 RMK AO2
K4S2 071435Z AUTO 00000KT 7SM OVC031 02/02 A3009 RMK AO2
K4S2 071415Z AUTO 00000KT 7SM SCT020 OVC033 02/02 A3009 RMK AO2
K4S2 071355Z AUTO 00000KT 10SM OVC020 02/02 A3009 RMK AO2
K4S2 071335Z AUTO 00000KT 10SM OVC020 02/02 A3009 RMK AO2
K4S2 071315Z AUTO 00000KT 10SM OVC020 02/02 A3008 RMK AO2
K4S2 071255Z AUTO 34003KT 10SM SCT006 OVC020 02/02 A3008 RMK AO2
K4S2 071235Z AUTO 00000KT 5SM BR SCT006 OVC022 03/02 A3007 RMK AO2
K4S2 071215Z AUTO 00000KT 5SM -DZ OVC018 03/02 A3007 RMK AO2
K4S2 071155Z AUTO 00000KT 4SM -DZ OVC016 03/02 A3009 RMK AO2
K4S2 071135Z AUTO 00000KT 5SM -DZ OVC018 03/02 A3009 RMK AO2
K4S2 071115Z AUTO 00000KT 5SM -DZ OVC018 03/02 A3009 RMK AO2
K4S2 071055Z AUTO 00000KT 4SM -DZ SCT011 OVC016 03/02 A3008 RMK AO2 P0001
K4S2 071035Z AUTO 00000KT 3SM -DZ BKN011 OVC018 03/02 A3008 RMK AO2
K4S2 071015Z AUTO 00000KT 2 1/2SM -DZ OVC013 03/02 A3007 RMK AO2
K4S2 070955Z AUTO 35003KT 2 1/2SM -DZ OVC013 03/02 A3007 RMK AO2 P0001
K4S2 070935Z AUTO 00000KT 2 1/2SM -DZ OVC013 03/02 A3006 RMK AO2 P0001
K4S2 070715Z AUTO 34003KT 4SM -DZ SCT009 OVC015 03/03 A3004 RMK AO2
K4S2 070655Z AUTO 36003KT 3SM -DZ SCT009 OVC015 03/03 A3004 RMK AO2 P0001
K4S2 070635Z AUTO 36003KT 4SM BR OVC015 03/03 A3004 RMK AO2 P0001
K4S2 070615Z AUTO 01004KT 5SM BR OVC015 04/03 A3004 RMK AO2
K4S2 070555Z AUTO 35004KT 5SM BR OVC015 04/03 A3003 RMK AO2
K4S2 070535Z AUTO 00000KT 2 1/2SM BR SCT003 OVC015 04/03 A3002 RMK AO2
K4S2 070515Z AUTO 00000KT 2SM BR OVC003 04/03 A3002 RMK AO2
K4S2 070415Z AUTO 00000KT 1 3/4SM -DZ OVC003 04/03 A3002 RMK AO2
K4S2 070355Z AUTO 00000KT 3SM BR BKN005 OVC010 04/03 A3002 RMK AO2 P0001
K4S2 070335Z AUTO 00000KT 4SM -DZ OVC010 04/03 A3001 RMK AO2
K4S2 070315Z AUTO 00000KT 4SM BR OVC010 04/03 A3001 RMK AO2
K4S2 070255Z AUTO 00000KT 3SM -DZ SCT004 OVC010 04/03 A3001 RMK AO2
K4S2 070235Z AUTO 00000KT 2 1/2SM BR BKN004 OVC010 04/03 A3001 RMK AO2
K4S2 070215Z AUTO 00000KT 4SM BR BKN004 OVC010 04/03 A3001 RMK AO2
K4S2 070155Z AUTO 00000KT 5SM BR OVC004 04/03 A3001 RMK AO2
K4S2 070135Z AUTO 00000KT 5SM -DZ BKN004 BKN008 OVC020 04/03 A3001 RMK AO2
K4S2 070115Z AUTO 00000KT 7SM SCT008 OVC020 04/03 A3001 RMK AO2
K4S2 070055Z AUTO 00000KT 10SM SCT004 SCT014 OVC020 03/03 A3000 RMK AO2
K4S2 070035Z AUTO 00000KT 7SM SCT004 OVC012 03/03 A3000 RMK AO2
K4S2 070015Z AUTO 00000KT 7SM -DZ SCT004 OVC012 03/03 A3000 RMK AO2
K4S2 062355Z AUTO 00000KT 4SM -DZ BKN004 OVC012 04/03 A3000 RMK AO2 P0001
K4S2 062335Z AUTO 00000KT 5SM BR SCT004 OVC010 04/03 A3000 RMK AO2 P0001
K4S2 062315Z AUTO 00000KT 4SM BR BKN004 OVC008 04/03 A2999 RMK AO2 P0001
K4S2 062255Z AUTO 00000KT 5SM -DZ OVC008 04/03 A2999 RMK AO2
K4S2 062235Z AUTO 00000KT 5SM -DZ OVC008 03/03 A2999 RMK AO2
K4S2 062215Z AUTO 00000KT 3SM -RA OVC006 03/02 A2999 RMK AO2
K4S2 062155Z AUTO 00000KT 5SM -DZ OVC006 03/02 A2999 RMK AO2
K4S2 062135Z AUTO 00000KT 7SM -DZ BKN004 OVC009 03/02 A2999 RMK AO2
K4S2 062115Z AUTO 00000KT 7SM -RA BKN006 OVC011 03/02 A3000 RMK AO2
K4S2 062055Z AUTO 00000KT 7SM -RA BKN006 OVC011 03/02 A3000 RMK AO2 P0001
K4S2 062035Z AUTO 00000KT 7SM -RA BKN006 OVC011 02/01 A3001 RMK AO2
K4S2 062015Z AUTO 00000KT 7SM -RA BKN006 OVC011 03/02 A3002 RMK AO2
K4S2 061955Z AUTO 00000KT 10SM -DZ OVC013 03/01 A3002 RMK AO2
K4S2 061935Z AUTO 00000KT 10SM OVC013 02/01 A3003 RMK AO2
K4S2 061915Z AUTO 00000KT 10SM OVC013 02/01 A3004 RMK AO2
K4S2 061855Z AUTO 00000KT 10SM SCT009 OVC015 02/01 A3004 RMK AO2
K4S2 061835Z AUTO 00000KT 10SM OVC017 02/01 A3006 RMK AO2
K4S2 061815Z AUTO 00000KT 10SM -RA SCT007 OVC017 01/01 A3007 RMK AO2
K4S2 061755Z AUTO 00000KT 10SM BKN007 BKN010 OVC017 02/01 A3009 RMK AO2
K4S2 061735Z AUTO 00000KT 10SM BKN005 BKN010 OVC019 01/01 A3010 RMK AO2
K4S2 061715Z AUTO 00000KT 10SM SCT004 BKN019 OVC055 01/01 A3010 RMK AO2
K4S2 061655Z AUTO 00000KT 10SM SCT023 BKN042 OVC070 01/01 A3010 RMK AO2
K4S2 061635Z AUTO 00000KT 5SM BR OVC023 01/01 A3011 RMK AO2
K4S2 061615Z AUTO 00000KT 4SM BR OVC023 01/01 A3010 RMK AO2
K4S2 061535Z AUTO 00000KT 7SM -RA BKN025 BKN050 OVC100 01/01 A3012 RMK AO2 P0001
K4S2 061515Z AUTO 00000KT 7SM -RA SCT027 BKN050 OVC085 01/01 A3013 RMK AO2
K4S2 061455Z AUTO 00000KT 10SM -RA SCT029 BKN065 OVC090 01/01 A3014 RMK AO2 P0001
K4S2 061435Z AUTO 00000KT 10SM -DZ SCT028 BKN065 OVC100 01/00 A3016 RMK AO2 P0001
K4S2 061355Z AUTO 00000KT 10SM -RA SCT028 BKN049 OVC080 01/01 A3019 RMK AO2 P0001
K4S2 061335Z AUTO 00000KT 10SM -RA BKN080 OVC090 01/00 A3020 RMK AO2
K4S2 061255Z AUTO 00000KT 10SM -RA SCT047 OVC065 01/00 A3023 RMK AO2
K4S2 061235Z AUTO 00000KT 10SM -RA OVC047 01/00 A3023 RMK AO2
K4S2 061215Z AUTO 00000KT 10SM -RA SCT049 OVC065 01/00 A3023 RMK AO2
K4S2 061155Z AUTO 00000KT 10SM BKN065 OVC080 01/00 A3024 RMK AO2
K4S2 061135Z AUTO 00000KT 10SM OVC075 01/00 A3025 RMK AO2
K4S2 061115Z AUTO 00000KT 10SM -RA BKN065 OVC085 01/00 A3025 RMK AO2
K4S2 061055Z AUTO 00000KT 10SM -RA SCT070 SCT075 OVC085 01/00 A3028 RMK AO2
K4S2 061035Z AUTO 00000KT 10SM UP SCT041 SCT060 OVC085 01/00 A3029 RMK AO2
K4S2 061015Z AUTO 00000KT 10SM UP SCT038 SCT047 OVC065 01/00 A3031 RMK AO2
K4S2 060955Z AUTO 00000KT 10SM -RA SCT040 SCT046 OVC070 01/00 A3032 RMK AO2
K4S2 060935Z AUTO 00000KT 10SM -RA SCT060 OVC070 02/00 A3034 RMK AO2
K4S2 060915Z AUTO 00000KT 10SM BKN060 OVC070 02/00 A3035 RMK AO2
K4S2 060855Z AUTO 00000KT 10SM OVC060 02/00 A3035 RMK AO2
K4S2 060835Z AUTO 00000KT 10SM BKN060 OVC080 02/00 A3036 RMK AO2
K4S2 060815Z AUTO 00000KT 10SM OVC090 01/00 A3035 RMK AO2
K4S2 060755Z AUTO 00000KT 10SM OVC090 01/00 A3037 RMK AO2
K4S2 060735Z AUTO 00000KT 10SM BKN100 02/M01 A3037 RMK AO2
K4S2 060715Z AUTO 00000KT 10SM SCT100 02/00 A3037 RMK AO2
K4S2 060635Z AUTO 00000KT 10SM BKN085 BKN110 02/M01 A3039 RMK AO2
K4S2 060615Z AUTO 34003KT 10SM SCT090 BKN110 02/M01 A3040 RMK AO2